sensor_id;sensor_type;location;lat;lon;timestamp;pressure;altitude;pressure_sealevel;temperature
68745;BMP180;66104;45.456;11.064;2023-01-09T00:01:54;99620.20;;;10.80
68745;BMP180;66104;45.456;11.064;2023-01-09T00:04:31;99614.80;;;10.80
68745;BMP180;66104;45.456;11.064;2023-01-09T00:07:08;99614.40;;;10.80
68745;BMP180;66104;45.456;11.064;2023-01-09T00:09:44;99611.20;;;10.86
68745;BMP180;66104;45.456;11.064;2023-01-09T00:12:21;99614.00;;;10.90
68745;BMP180;66104;45.456;11.064;2023-01-09T00:14:59;99604.80;;;10.90
68745;BMP180;66104;45.456;11.064;2023-01-09T00:17:35;99593.60;;;11.00
68745;BMP180;66104;45.456;11.064;2023-01-09T00:22:52;99574.40;;;11.00
68745;BMP180;66104;45.456;11.064;2023-01-09T00:25:28;99570.80;;;11.00
68745;BMP180;66104;45.456;11.064;2023-01-09T00:28:05;99563.40;;;11.00
68745;BMP180;66104;45.456;11.064;2023-01-09T00:30:42;99551.40;;;11.10
68745;BMP180;66104;45.456;11.064;2023-01-09T00:33:19;99545.80;;;11.10
68745;BMP180;66104;45.456;11.064;2023-01-09T00:35:57;99534.00;;;11.10
68745;BMP180;66104;45.456;11.064;2023-01-09T00:38:33;99523.40;;;11.06
68745;BMP180;66104;45.456;11.064;2023-01-09T00:41:17;99517.20;;;11.10
68745;BMP180;66104;45.456;11.064;2023-01-09T00:44:00;99514.20;;;11.10
68745;BMP180;66104;45.456;11.064;2023-01-09T00:46:43;99501.40;;;11.10
68745;BMP180;66104;45.456;11.064;2023-01-09T00:49:20;99495.60;;;11.10
68745;BMP180;66104;45.456;11.064;2023-01-09T00:51:58;99483.80;;;11.10
68745;BMP180;66104;45.456;11.064;2023-01-09T00:54:35;99481.00;;;11.10
68745;BMP180;66104;45.456;11.064;2023-01-09T00:57:15;99483.80;;;11.10
68745;BMP180;66104;45.456;11.064;2023-01-09T00:59:53;99488.20;;;11.06
68745;BMP180;66104;45.456;11.064;2023-01-09T01:02:31;99486.20;;;11.04
68745;BMP180;66104;45.456;11.064;2023-01-09T01:05:10;99489.80;;;11.10
68745;BMP180;66104;45.456;11.064;2023-01-09T01:08:07;99490.20;;;11.10
68745;BMP180;66104;45.456;11.064;2023-01-09T01:10:45;99496.80;;;11.10
68745;BMP180;66104;45.456;11.064;2023-01-09T01:13:22;99499.40;;;11.14
68745;BMP180;66104;45.456;11.064;2023-01-09T01:15:59;99497.40;;;11.16
68745;BMP180;66104;45.456;11.064;2023-01-09T01:18:35;99490.00;;;11.20
68745;BMP180;66104;45.456;11.064;2023-01-09T01:21:14;99480.40;;;11.20
68745;BMP180;66104;45.456;11.064;2023-01-09T01:23:50;99477.80;;;11.20
68745;BMP180;66104;45.456;11.064;2023-01-09T01:26:27;99476.80;;;11.26
68745;BMP180;66104;45.456;11.064;2023-01-09T01:29:04;99480.20;;;11.20
68745;BMP180;66104;45.456;11.064;2023-01-09T01:31:41;99478.20;;;11.30
68745;BMP180;66104;45.456;11.064;2023-01-09T01:34:18;99473.40;;;11.30
68745;BMP180;66104;45.456;11.064;2023-01-09T01:36:55;99468.40;;;11.30
68745;BMP180;66104;45.456;11.064;2023-01-09T01:39:32;99467.80;;;11.20
68745;BMP180;66104;45.456;11.064;2023-01-09T01:42:09;99470.60;;;11.20
68745;BMP180;66104;45.456;11.064;2023-01-09T01:45:09;99460.00;;;11.20
68745;BMP180;66104;45.456;11.064;2023-01-09T01:48:00;99460.20;;;11.20
68745;BMP180;66104;45.456;11.064;2023-01-09T01:50:46;99464.00;;;11.20
68745;BMP180;66104;45.456;11.064;2023-01-09T01:53:28;99456.80;;;11.20
68745;BMP180;66104;45.456;11.064;2023-01-09T01:56:18;99456.40;;;11.20
68745;BMP180;66104;45.456;11.064;2023-01-09T01:59:03;99454.60;;;11.20
68745;BMP180;66104;45.456;11.064;2023-01-09T02:01:46;99454.40;;;11.20
68745;BMP180;66104;45.456;11.064;2023-01-09T02:04:24;99453.60;;;11.20
68745;BMP180;66104;45.456;11.064;2023-01-09T02:07:02;99459.80;;;11.30
68745;BMP180;66104;45.456;11.064;2023-01-09T02:09:40;99461.60;;;11.30
68745;BMP180;66104;45.456;11.064;2023-01-09T02:12:23;99458.80;;;11.30
68745;BMP180;66104;45.456;11.064;2023-01-09T02:15:05;99459.20;;;11.30
68745;BMP180;66104;45.456;11.064;2023-01-09T02:21:17;99460.40;;;11.30
68745;BMP180;66104;45.456;11.064;2023-01-09T02:24:44;99463.80;;;11.30
68745;BMP180;66104;45.456;11.064;2023-01-09T02:30:45;99459.80;;;11.20
68745;BMP180;66104;45.456;11.064;2023-01-09T02:33:44;99460.60;;;11.20
68745;BMP180;66104;45.456;11.064;2023-01-09T02:36:33;99461.80;;;11.12
68745;BMP180;66104;45.456;11.064;2023-01-09T02:39:34;99460.80;;;11.10
68745;BMP180;66104;45.456;11.064;2023-01-09T02:42:20;99460.80;;;11.10
68745;BMP180;66104;45.456;11.064;2023-01-09T02:44:57;99457.00;;;11.04
68745;BMP180;66104;45.456;11.064;2023-01-09T02:47:52;99448.40;;;11.02
68745;BMP180;66104;45.456;11.064;2023-01-09T02:50:38;99443.00;;;11.00
68745;BMP180;66104;45.456;11.064;2023-01-09T02:53:49;99432.40;;;10.92
68745;BMP180;66104;45.456;11.064;2023-01-09T02:56:54;99429.00;;;10.90
68745;BMP180;66104;45.456;11.064;2023-01-09T02:59:42;99428.40;;;10.90
68745;BMP180;66104;45.456;11.064;2023-01-09T03:05:34;99426.80;;;11.00
68745;BMP180;66104;45.456;11.064;2023-01-09T03:08:18;99434.80;;;11.00
68745;BMP180;66104;45.456;11.064;2023-01-09T03:11:03;99435.80;;;11.00
68745;BMP180;66104;45.456;11.064;2023-01-09T03:13:49;99439.20;;;11.00
68745;BMP180;66104;45.456;11.064;2023-01-09T03:16:32;99433.40;;;11.00
68745;BMP180;66104;45.456;11.064;2023-01-09T03:19:15;99440.80;;;11.00
68745;BMP180;66104;45.456;11.064;2023-01-09T03:21:55;99437.40;;;10.90
68745;BMP180;66104;45.456;11.064;2023-01-09T03:24:32;99431.60;;;10.90
68745;BMP180;66104;45.456;11.064;2023-01-09T03:27:10;99432.40;;;10.96
68745;BMP180;66104;45.456;11.064;2023-01-09T03:29:47;99439.40;;;10.92
68745;BMP180;66104;45.456;11.064;2023-01-09T03:32:24;99437.80;;;10.90
68745;BMP180;66104;45.456;11.064;2023-01-09T03:35:01;99441.00;;;10.90
68745;BMP180;66104;45.456;11.064;2023-01-09T03:37:38;99432.60;;;10.90
68745;BMP180;66104;45.456;11.064;2023-01-09T03:40:18;99428.60;;;10.90
68745;BMP180;66104;45.456;11.064;2023-01-09T03:42:54;99426.80;;;10.90
68745;BMP180;66104;45.456;11.064;2023-01-09T03:45:32;99433.40;;;10.90
68745;BMP180;66104;45.456;11.064;2023-01-09T03:48:10;99435.00;;;10.90
68745;BMP180;66104;45.456;11.064;2023-01-09T03:50:48;99433.40;;;10.84
68745;BMP180;66104;45.456;11.064;2023-01-09T03:53:27;99421.80;;;10.80
68745;BMP180;66104;45.456;11.064;2023-01-09T03:56:05;99414.00;;;10.80
68745;BMP180;66104;45.456;11.064;2023-01-09T03:58:42;99409.00;;;10.80
68745;BMP180;66104;45.456;11.064;2023-01-09T04:01:20;99395.80;;;10.80
68745;BMP180;66104;45.456;11.064;2023-01-09T04:03:57;99391.20;;;10.80
68745;BMP180;66104;45.456;11.064;2023-01-09T04:06:34;99396.20;;;10.80
68745;BMP180;66104;45.456;11.064;2023-01-09T04:09:11;99399.40;;;10.80
68745;BMP180;66104;45.456;11.064;2023-01-09T04:11:48;99396.00;;;10.80
68745;BMP180;66104;45.456;11.064;2023-01-09T04:14:25;99396.80;;;10.76
68745;BMP180;66104;45.456;11.064;2023-01-09T04:17:03;99398.60;;;10.72
68745;BMP180;66104;45.456;11.064;2023-01-09T04:19:39;99400.80;;;10.74
68745;BMP180;66104;45.456;11.064;2023-01-09T04:22:17;99394.60;;;10.80
68745;BMP180;66104;45.456;11.064;2023-01-09T04:24:54;99397.20;;;10.80
68745;BMP180;66104;45.456;11.064;2023-01-09T04:27:31;99392.40;;;10.88
68745;BMP180;66104;45.456;11.064;2023-01-09T04:30:13;99381.40;;;10.80
68745;BMP180;66104;45.456;11.064;2023-01-09T04:32:48;99369.60;;;10.80
68745;BMP180;66104;45.456;11.064;2023-01-09T04:35:25;99365.20;;;10.70
68745;BMP180;66104;45.456;11.064;2023-01-09T04:38:02;99369.80;;;10.70
68745;BMP180;66104;45.456;11.064;2023-01-09T04:40:39;99375.40;;;10.70
68745;BMP180;66104;45.456;11.064;2023-01-09T04:43:15;99372.60;;;10.70
68745;BMP180;66104;45.456;11.064;2023-01-09T04:45:51;99369.60;;;10.70
68745;BMP180;66104;45.456;11.064;2023-01-09T04:48:28;99360.80;;;10.70
68745;BMP180;66104;45.456;11.064;2023-01-09T04:51:04;99370.60;;;10.60
68745;BMP180;66104;45.456;11.064;2023-01-09T04:53:41;99375.60;;;10.60
68745;BMP180;66104;45.456;11.064;2023-01-09T04:56:17;99371.80;;;10.58
68745;BMP180;66104;45.456;11.064;2023-01-09T04:58:54;99379.60;;;10.60
68745;BMP180;66104;45.456;11.064;2023-01-09T05:01:31;99365.40;;;10.60
68745;BMP180;66104;45.456;11.064;2023-01-09T05:04:07;99363.00;;;10.60
68745;BMP180;66104;45.456;11.064;2023-01-09T05:06:45;99363.60;;;10.60
68745;BMP180;66104;45.456;11.064;2023-01-09T05:09:23;99373.80;;;10.50
68745;BMP180;66104;45.456;11.064;2023-01-09T05:12:00;99373.20;;;10.50
68745;BMP180;66104;45.456;11.064;2023-01-09T05:14:37;99361.80;;;10.50
68745;BMP180;66104;45.456;11.064;2023-01-09T05:17:13;99364.00;;;10.50
68745;BMP180;66104;45.456;11.064;2023-01-09T05:19:50;99360.60;;;10.58
68745;BMP180;66104;45.456;11.064;2023-01-09T05:22:27;99365.60;;;10.60
68745;BMP180;66104;45.456;11.064;2023-01-09T05:25:04;99369.20;;;10.60
68745;BMP180;66104;45.456;11.064;2023-01-09T05:27:41;99359.60;;;10.60
68745;BMP180;66104;45.456;11.064;2023-01-09T05:30:22;99370.60;;;10.60
68745;BMP180;66104;45.456;11.064;2023-01-09T05:32:59;99373.00;;;10.60
68745;BMP180;66104;45.456;11.064;2023-01-09T05:35:36;99378.60;;;10.60
68745;BMP180;66104;45.456;11.064;2023-01-09T05:38:13;99386.60;;;10.60
68745;BMP180;66104;45.456;11.064;2023-01-09T05:40:50;99385.20;;;10.60
68745;BMP180;66104;45.456;11.064;2023-01-09T05:43:28;99388.00;;;10.66
68745;BMP180;66104;45.456;11.064;2023-01-09T05:46:05;99384.60;;;10.70
68745;BMP180;66104;45.456;11.064;2023-01-09T05:48:43;99387.80;;;10.70
68745;BMP180;66104;45.456;11.064;2023-01-09T05:51:20;99387.80;;;10.70
68745;BMP180;66104;45.456;11.064;2023-01-09T05:53:58;99384.80;;;10.60
68745;BMP180;66104;45.456;11.064;2023-01-09T05:56:35;99389.40;;;10.60
68745;BMP180;66104;45.456;11.064;2023-01-09T05:59:12;99384.80;;;10.50
68745;BMP180;66104;45.456;11.064;2023-01-09T06:01:49;99393.00;;;10.50
68745;BMP180;66104;45.456;11.064;2023-01-09T06:04:26;99395.00;;;10.50
68745;BMP180;66104;45.456;11.064;2023-01-09T06:07:03;99395.40;;;10.52
68745;BMP180;66104;45.456;11.064;2023-01-09T06:09:41;99386.80;;;10.50
68745;BMP180;66104;45.456;11.064;2023-01-09T06:12:17;99387.20;;;10.50
68745;BMP180;66104;45.456;11.064;2023-01-09T06:14:54;99389.00;;;10.50
68745;BMP180;66104;45.456;11.064;2023-01-09T06:17:32;99382.00;;;10.50
68745;BMP180;66104;45.456;11.064;2023-01-09T06:22:49;99387.20;;;10.40
68745;BMP180;66104;45.456;11.064;2023-01-09T06:25:27;99390.60;;;10.40
68745;BMP180;66104;45.456;11.064;2023-01-09T06:28:04;99390.00;;;10.40
68745;BMP180;66104;45.456;11.064;2023-01-09T06:30:41;99389.80;;;10.40
68745;BMP180;66104;45.456;11.064;2023-01-09T06:33:19;99393.40;;;10.40
68745;BMP180;66104;45.456;11.064;2023-01-09T06:35:55;99398.20;;;10.34
68745;BMP180;66104;45.456;11.064;2023-01-09T06:38:32;99398.20;;;10.30
68745;BMP180;66104;45.456;11.064;2023-01-09T06:41:09;99398.20;;;10.30
68745;BMP180;66104;45.456;11.064;2023-01-09T06:43:46;99406.80;;;10.30
68745;BMP180;66104;45.456;11.064;2023-01-09T06:46:24;99402.20;;;10.30
68745;BMP180;66104;45.456;11.064;2023-01-09T06:49:00;99400.00;;;10.38
68745;BMP180;66104;45.456;11.064;2023-01-09T06:51:38;99404.40;;;10.32
68745;BMP180;66104;45.456;11.064;2023-01-09T06:54:17;99403.80;;;10.36
68745;BMP180;66104;45.456;11.064;2023-01-09T06:56:53;99398.00;;;10.30
68745;BMP180;66104;45.456;11.064;2023-01-09T06:59:29;99392.60;;;10.30
68745;BMP180;66104;45.456;11.064;2023-01-09T07:02:07;99393.00;;;10.30
68745;BMP180;66104;45.456;11.064;2023-01-09T07:04:50;99393.00;;;10.30
68745;BMP180;66104;45.456;11.064;2023-01-09T07:07:27;99382.40;;;10.30
68745;BMP180;66104;45.456;11.064;2023-01-09T07:10:05;99376.00;;;10.30
68745;BMP180;66104;45.456;11.064;2023-01-09T07:12:43;99374.40;;;10.30
68745;BMP180;66104;45.456;11.064;2023-01-09T07:15:20;99369.80;;;10.30
68745;BMP180;66104;45.456;11.064;2023-01-09T07:17:57;99360.20;;;10.30
68745;BMP180;66104;45.456;11.064;2023-01-09T07:20:34;99360.00;;;10.30
68745;BMP180;66104;45.456;11.064;2023-01-09T07:23:12;99360.60;;;10.30
68745;BMP180;66104;45.456;11.064;2023-01-09T07:25:51;99361.40;;;10.30
68745;BMP180;66104;45.456;11.064;2023-01-09T07:28:28;99359.20;;;10.30
68745;BMP180;66104;45.456;11.064;2023-01-09T07:31:06;99360.40;;;10.30
68745;BMP180;66104;45.456;11.064;2023-01-09T07:33:43;99363.00;;;10.30
68745;BMP180;66104;45.456;11.064;2023-01-09T07:36:21;99375.80;;;10.30
68745;BMP180;66104;45.456;11.064;2023-01-09T07:38:57;99382.00;;;10.20
68745;BMP180;66104;45.456;11.064;2023-01-09T07:41:34;99376.80;;;10.20
68745;BMP180;66104;45.456;11.064;2023-01-09T07:44:14;99377.40;;;10.20
68745;BMP180;66104;45.456;11.064;2023-01-09T07:46:51;99370.20;;;10.18
68745;BMP180;66104;45.456;11.064;2023-01-09T07:49:28;99365.80;;;10.10
68745;BMP180;66104;45.456;11.064;2023-01-09T07:52:05;99365.60;;;10.10
68745;BMP180;66104;45.456;11.064;2023-01-09T07:54:43;99366.20;;;10.10
68745;BMP180;66104;45.456;11.064;2023-01-09T07:57:19;99351.40;;;10.10
68745;BMP180;66104;45.456;11.064;2023-01-09T07:59:55;99335.60;;;10.10
68745;BMP180;66104;45.456;11.064;2023-01-09T08:02:33;99329.60;;;10.10
68745;BMP180;66104;45.456;11.064;2023-01-09T08:05:12;99320.60;;;10.10
68745;BMP180;66104;45.456;11.064;2023-01-09T08:07:49;99321.80;;;10.10
68745;BMP180;66104;45.456;11.064;2023-01-09T08:10:25;99327.60;;;10.10
68745;BMP180;66104;45.456;11.064;2023-01-09T08:13:03;99331.20;;;10.18
68745;BMP180;66104;45.456;11.064;2023-01-09T08:15:40;99332.20;;;10.20
68745;BMP180;66104;45.456;11.064;2023-01-09T08:18:16;99323.80;;;10.30
68745;BMP180;66104;45.456;11.064;2023-01-09T08:20:54;99317.20;;;10.30
68745;BMP180;66104;45.456;11.064;2023-01-09T08:23:31;99330.00;;;10.36
68745;BMP180;66104;45.456;11.064;2023-01-09T08:26:08;99335.60;;;10.40
68745;BMP180;66104;45.456;11.064;2023-01-09T08:28:44;99328.20;;;10.30
68745;BMP180;66104;45.456;11.064;2023-01-09T08:31:22;99324.60;;;10.30
68745;BMP180;66104;45.456;11.064;2023-01-09T08:33:58;99337.20;;;10.30
68745;BMP180;66104;45.456;11.064;2023-01-09T08:36:35;99342.60;;;10.30
68745;BMP180;66104;45.456;11.064;2023-01-09T08:39:12;99346.20;;;10.30
68745;BMP180;66104;45.456;11.064;2023-01-09T08:41:48;99349.60;;;10.30
68745;BMP180;66104;45.456;11.064;2023-01-09T08:44:41;99350.20;;;10.30
68745;BMP180;66104;45.456;11.064;2023-01-09T08:47:35;99342.40;;;10.30
68745;BMP180;66104;45.456;11.064;2023-01-09T08:50:15;99340.80;;;10.30
68745;BMP180;66104;45.456;11.064;2023-01-09T08:52:52;99337.60;;;10.30
68745;BMP180;66104;45.456;11.064;2023-01-09T08:55:29;99335.60;;;10.34
68745;BMP180;66104;45.456;11.064;2023-01-09T08:58:06;99337.00;;;10.40
68745;BMP180;66104;45.456;11.064;2023-01-09T09:00:43;99334.80;;;10.40
68745;BMP180;66104;45.456;11.064;2023-01-09T09:03:20;99329.00;;;10.40
68745;BMP180;66104;45.456;11.064;2023-01-09T09:05:57;99333.60;;;10.50
68745;BMP180;66104;45.456;11.064;2023-01-09T09:08:33;99341.60;;;10.50
68745;BMP180;66104;45.456;11.064;2023-01-09T09:11:11;99344.60;;;10.58
68745;BMP180;66104;45.456;11.064;2023-01-09T09:13:48;99342.20;;;10.60
68745;BMP180;66104;45.456;11.064;2023-01-09T09:16:25;99334.40;;;10.60
68745;BMP180;66104;45.456;11.064;2023-01-09T09:19:02;99333.40;;;10.70
68745;BMP180;66104;45.456;11.064;2023-01-09T09:21:39;99335.40;;;10.70
68745;BMP180;66104;45.456;11.064;2023-01-09T09:24:16;99337.80;;;10.60
68745;BMP180;66104;45.456;11.064;2023-01-09T09:26:52;99344.80;;;10.50
68745;BMP180;66104;45.456;11.064;2023-01-09T09:29:29;99340.80;;;10.50
68745;BMP180;66104;45.456;11.064;2023-01-09T09:32:07;99337.00;;;10.50
68745;BMP180;66104;45.456;11.064;2023-01-09T09:34:44;99332.20;;;10.50
68745;BMP180;66104;45.456;11.064;2023-01-09T09:37:20;99333.00;;;10.60
68745;BMP180;66104;45.456;11.064;2023-01-09T09:39:57;99323.80;;;10.60
68745;BMP180;66104;45.456;11.064;2023-01-09T09:43:09;99325.60;;;10.70
68745;BMP180;66104;45.456;11.064;2023-01-09T09:46:16;99332.00;;;10.70
68745;BMP180;66104;45.456;11.064;2023-01-09T09:49:01;99330.60;;;10.70
68745;BMP180;66104;45.456;11.064;2023-01-09T09:51:57;99326.20;;;10.80
68745;BMP180;66104;45.456;11.064;2023-01-09T09:54:41;99327.80;;;10.80
68745;BMP180;66104;45.456;11.064;2023-01-09T09:57:27;99330.20;;;10.80
68745;BMP180;66104;45.456;11.064;2023-01-09T10:00:17;99323.40;;;10.80
68745;BMP180;66104;45.456;11.064;2023-01-09T10:03:03;99322.40;;;10.78
68745;BMP180;66104;45.456;11.064;2023-01-09T10:05:42;99320.40;;;10.72
68745;BMP180;66104;45.456;11.064;2023-01-09T10:08:33;99319.80;;;10.70
68745;BMP180;66104;45.456;11.064;2023-01-09T10:11:19;99323.20;;;10.70
68745;BMP180;66104;45.456;11.064;2023-01-09T10:13:57;99324.80;;;10.60
68745;BMP180;66104;45.456;11.064;2023-01-09T10:23:28;99327.40;;;10.60
68745;BMP180;66104;45.456;11.064;2023-01-09T10:26:20;99323.00;;;10.50
68745;BMP180;66104;45.456;11.064;2023-01-09T10:29:28;99323.60;;;10.44
68745;BMP180;66104;45.456;11.064;2023-01-09T10:32:23;99325.60;;;10.46
68745;BMP180;66104;45.456;11.064;2023-01-09T10:38:27;99317.60;;;10.50
68745;BMP180;66104;45.456;11.064;2023-01-09T10:41:09;99307.40;;;10.50
68745;BMP180;66104;45.456;11.064;2023-01-09T10:43:55;99300.00;;;10.50
68745;BMP180;66104;45.456;11.064;2023-01-09T10:46:40;99293.60;;;10.50
68745;BMP180;66104;45.456;11.064;2023-01-09T10:49:19;99286.00;;;10.50
68745;BMP180;66104;45.456;11.064;2023-01-09T10:52:15;99298.60;;;10.50
68745;BMP180;66104;45.456;11.064;2023-01-09T10:54:59;99292.40;;;10.50
68745;BMP180;66104;45.456;11.064;2023-01-09T10:57:45;99294.20;;;10.50
68745;BMP180;66104;45.456;11.064;2023-01-09T11:00:25;99314.40;;;10.50
68745;BMP180;66104;45.456;11.064;2023-01-09T11:03:08;99322.80;;;10.40
68745;BMP180;66104;45.456;11.064;2023-01-09T11:05:50;99316.40;;;10.40
68745;BMP180;66104;45.456;11.064;2023-01-09T11:08:34;99317.40;;;10.48
68745;BMP180;66104;45.456;11.064;2023-01-09T11:11:32;99312.00;;;10.50
68745;BMP180;66104;45.456;11.064;2023-01-09T11:14:15;99317.40;;;10.60
68745;BMP180;66104;45.456;11.064;2023-01-09T11:16:59;99317.40;;;10.60
68745;BMP180;66104;45.456;11.064;2023-01-09T11:19:37;99310.80;;;10.60
68745;BMP180;66104;45.456;11.064;2023-01-09T11:22:19;99307.60;;;10.60
68745;BMP180;66104;45.456;11.064;2023-01-09T11:25:10;99297.60;;;10.60
68745;BMP180;66104;45.456;11.064;2023-01-09T11:28:04;99296.60;;;10.50
68745;BMP180;66104;45.456;11.064;2023-01-09T11:30:57;99304.00;;;10.50
68745;BMP180;66104;45.456;11.064;2023-01-09T11:33:38;99306.40;;;10.54
68745;BMP180;66104;45.456;11.064;2023-01-09T11:36:27;99295.80;;;10.50
68745;BMP180;66104;45.456;11.064;2023-01-09T11:39:13;99289.80;;;10.50
68745;BMP180;66104;45.456;11.064;2023-01-09T11:41:57;99282.20;;;10.50
68745;BMP180;66104;45.456;11.064;2023-01-09T11:44:36;99277.00;;;10.50
68745;BMP180;66104;45.456;11.064;2023-01-09T11:47:38;99277.80;;;10.40
68745;BMP180;66104;45.456;11.064;2023-01-09T11:50:26;99282.00;;;10.40
68745;BMP180;66104;45.456;11.064;2023-01-09T11:53:20;99281.40;;;10.40
68745;BMP180;66104;45.456;11.064;2023-01-09T11:56:07;99278.80;;;10.40
68745;BMP180;66104;45.456;11.064;2023-01-09T11:58:45;99266.80;;;10.40
68745;BMP180;66104;45.456;11.064;2023-01-09T12:04:53;99261.60;;;10.40
68745;BMP180;66104;45.456;11.064;2023-01-09T12:08:05;99258.60;;;10.40
68745;BMP180;66104;45.456;11.064;2023-01-09T12:11:12;99252.00;;;10.44
68745;BMP180;66104;45.456;11.064;2023-01-09T12:17:22;99245.00;;;10.60
68745;BMP180;66104;45.456;11.064;2023-01-09T12:20:24;99246.60;;;10.66
68745;BMP180;66104;45.456;11.064;2023-01-09T12:23:28;99240.20;;;10.68
68745;BMP180;66104;45.456;11.064;2023-01-09T12:26:18;99237.20;;;10.60
68745;BMP180;66104;45.456;11.064;2023-01-09T12:32:35;99233.80;;;10.70
68745;BMP180;66104;45.456;11.064;2023-01-09T12:35:27;99226.40;;;10.80
68745;BMP180;66104;45.456;11.064;2023-01-09T12:38:29;99222.60;;;11.00
68745;BMP180;66104;45.456;11.064;2023-01-09T12:44:47;99214.60;;;11.32
68745;BMP180;66104;45.456;11.064;2023-01-09T12:47:50;99213.20;;;11.40
68745;BMP180;66104;45.456;11.064;2023-01-09T12:50:56;99211.40;;;11.40
68745;BMP180;66104;45.456;11.064;2023-01-09T12:53:41;99209.20;;;11.50
68745;BMP180;66104;45.456;11.064;2023-01-09T12:56:23;99204.40;;;11.50
68745;BMP180;66104;45.456;11.064;2023-01-09T12:59:13;99197.40;;;11.50
68745;BMP180;66104;45.456;11.064;2023-01-09T13:01:59;99211.60;;;11.60
68745;BMP180;66104;45.456;11.064;2023-01-09T13:04:45;99206.80;;;11.60
68745;BMP180;66104;45.456;11.064;2023-01-09T13:07:29;99203.40;;;11.70
68745;BMP180;66104;45.456;11.064;2023-01-09T13:10:20;99194.20;;;11.70
68745;BMP180;66104;45.456;11.064;2023-01-09T13:13:04;99190.00;;;11.80
68745;BMP180;66104;45.456;11.064;2023-01-09T13:15:50;99187.00;;;11.82
68745;BMP180;66104;45.456;11.064;2023-01-09T13:18:36;99186.20;;;11.90
68745;BMP180;66104;45.456;11.064;2023-01-09T13:21:16;99175.40;;;12.00
68745;BMP180;66104;45.456;11.064;2023-01-09T13:24:00;99176.20;;;12.10
68745;BMP180;66104;45.456;11.064;2023-01-09T13:26:44;99174.40;;;12.10
68745;BMP180;66104;45.456;11.064;2023-01-09T13:29:28;99178.00;;;12.08
68745;BMP180;66104;45.456;11.064;2023-01-09T13:35:26;99168.80;;;11.72
68745;BMP180;66104;45.456;11.064;2023-01-09T13:38:04;99165.80;;;11.60
68745;BMP180;66104;45.456;11.064;2023-01-09T13:40:42;99166.20;;;11.60
68745;BMP180;66104;45.456;11.064;2023-01-09T13:43:20;99161.00;;;11.60
68745;BMP180;66104;45.456;11.064;2023-01-09T13:45:57;99161.80;;;11.60
68745;BMP180;66104;45.456;11.064;2023-01-09T13:48:44;99155.80;;;11.50
68745;BMP180;66104;45.456;11.064;2023-01-09T13:52:00;99146.60;;;11.40
68745;BMP180;66104;45.456;11.064;2023-01-09T13:58:25;99146.00;;;11.22
68745;BMP180;66104;45.456;11.064;2023-01-09T14:01:37;99145.00;;;11.20
68745;BMP180;66104;45.456;11.064;2023-01-09T14:04:53;99144.20;;;11.10
68745;BMP180;66104;45.456;11.064;2023-01-09T14:07:30;99138.60;;;11.10
68745;BMP180;66104;45.456;11.064;2023-01-09T14:10:22;99143.60;;;11.10
68745;BMP180;66104;45.456;11.064;2023-01-09T14:13:00;99145.40;;;11.10
68745;BMP180;66104;45.456;11.064;2023-01-09T14:15:43;99149.00;;;11.08
68745;BMP180;66104;45.456;11.064;2023-01-09T14:18:25;99147.60;;;11.00
68745;BMP180;66104;45.456;11.064;2023-01-09T14:21:05;99151.80;;;11.04
68745;BMP180;66104;45.456;11.064;2023-01-09T14:23:55;99150.20;;;11.10
68745;BMP180;66104;45.456;11.064;2023-01-09T14:26:50;99156.40;;;11.20
68745;BMP180;66104;45.456;11.064;2023-01-09T14:30:26;99166.00;;;11.30
68745;BMP180;66104;45.456;11.064;2023-01-09T14:33:23;99165.00;;;11.38
68745;BMP180;66104;45.456;11.064;2023-01-09T14:36:11;99162.40;;;11.40
68745;BMP180;66104;45.456;11.064;2023-01-09T14:38:51;99158.00;;;11.40
68745;BMP180;66104;45.456;11.064;2023-01-09T14:41:34;99158.00;;;11.40
68745;BMP180;66104;45.456;11.064;2023-01-09T14:44:30;99163.80;;;11.40
68745;BMP180;66104;45.456;11.064;2023-01-09T14:47:13;99162.40;;;11.40
68745;BMP180;66104;45.456;11.064;2023-01-09T14:49:57;99162.60;;;11.40
68745;BMP180;66104;45.456;11.064;2023-01-09T14:52:39;99159.80;;;11.40
68745;BMP180;66104;45.456;11.064;2023-01-09T14:55:29;99158.60;;;11.40
68745;BMP180;66104;45.456;11.064;2023-01-09T15:01:18;99148.80;;;11.30
68745;BMP180;66104;45.456;11.064;2023-01-09T15:04:03;99156.80;;;11.30
68745;BMP180;66104;45.456;11.064;2023-01-09T15:06:46;99154.60;;;11.20
68745;BMP180;66104;45.456;11.064;2023-01-09T15:09:28;99156.00;;;11.10
68745;BMP180;66104;45.456;11.064;2023-01-09T15:12:16;99157.80;;;11.02
68745;BMP180;66104;45.456;11.064;2023-01-09T15:14:59;99157.40;;;10.98
68745;BMP180;66104;45.456;11.064;2023-01-09T15:17:39;99149.60;;;10.90
68745;BMP180;66104;45.456;11.064;2023-01-09T15:20:23;99150.20;;;10.90
68745;BMP180;66104;45.456;11.064;2023-01-09T15:23:02;99147.20;;;10.90
68745;BMP180;66104;45.456;11.064;2023-01-09T15:25:40;99147.20;;;10.90
68745;BMP180;66104;45.456;11.064;2023-01-09T15:28:29;99147.80;;;10.96
68745;BMP180;66104;45.456;11.064;2023-01-09T15:31:13;99148.80;;;11.00
68745;BMP180;66104;45.456;11.064;2023-01-09T15:33:51;99155.60;;;11.00
68745;BMP180;66104;45.456;11.064;2023-01-09T15:36:29;99163.20;;;11.10
68745;BMP180;66104;45.456;11.064;2023-01-09T15:39:07;99166.60;;;11.10
68745;BMP180;66104;45.456;11.064;2023-01-09T15:41:47;99166.00;;;11.00
68745;BMP180;66104;45.456;11.064;2023-01-09T15:44:43;99161.40;;;10.94
68745;BMP180;66104;45.456;11.064;2023-01-09T15:47:26;99164.60;;;10.90
68745;BMP180;66104;45.456;11.064;2023-01-09T15:50:07;99161.00;;;10.90
68745;BMP180;66104;45.456;11.064;2023-01-09T15:52:50;99165.60;;;10.90
68745;BMP180;66104;45.456;11.064;2023-01-09T15:55:36;99170.40;;;10.80
68745;BMP180;66104;45.456;11.064;2023-01-09T15:58:30;99167.80;;;10.86
68745;BMP180;66104;45.456;11.064;2023-01-09T16:01:26;99166.40;;;10.80
68745;BMP180;66104;45.456;11.064;2023-01-09T16:04:11;99182.00;;;10.70
68745;BMP180;66104;45.456;11.064;2023-01-09T16:06:51;99192.80;;;10.70
68745;BMP180;66104;45.456;11.064;2023-01-09T16:09:30;99195.00;;;10.70
68745;BMP180;66104;45.456;11.064;2023-01-09T16:12:20;99190.80;;;10.64